Historyczne dane pomiarowe

Dodano dane terminowe – wersja testowa.

Dane z okresu 1951-2019

Wersja bazy: 1.34 [2019-03-16, lista zmian], aktualizacja planowana na 2019-04-15

Dane meteo z obszaru Polski uzyskane na podstawie danych udostępnionych przez Instytut Meteorologii i Gospodarki Wodnej – Państwowy Instytut Badawczy.

 

Wybierz Datę:    

       

TemperaturaWilgotnośćZachmurzenieWiatrCiśnienieWidzialnośćZjawiska
 Data    tng td wb rh cc ccl cl cm ch dir g1 g2 mslp ppp      
1994-07-22 00:00:00 10.8--- 9.3 10.091wxwx0wx--1020.8 979.5 0.0---wx
1994-07-22 01:00:00 10.8--- 9.3 10.091wxwx0wx--1020.8 979.5----wx
1994-07-22 02:00:00 9.1--- 7.9 8.592wxwx0wx--1021.0 979.5----wx
1994-07-22 03:00:00 9.0--- 7.0 8.087wxwx0wx--1021.3 979.7----wx
1994-07-22 04:00:00 8.4--- 7.2 7.892wxwx0wx--1021.4 979.8----wx
1994-07-22 05:00:00 9.1--- 6.9 8.086wxwx0wx--1021.4 979.9----wx
1994-07-22 06:00:00 14.2--- 10.7 12.279wxwx0wx--1020.9 980.1 0.0---wx
1994-07-22 07:00:00 19.5--- 11.9 15.062wxwxwx0wx--1020.0 980.0----wx
1994-07-22 08:00:00 23.0--- 15.3 18.162wxwxwx0wx--1019.6 980.0----wx
1994-07-22 09:00:00 26.5--- 13.8 18.546wxwxwx2wx--1019.2 980.1----wx
1994-07-22 10:00:00 27.1--- 8.9 16.532wxwxwxwx2wx--1019.0 980.0----wx
1994-07-22 11:00:00 27.4--- 7.7 16.129wxwxwxwx2wx--1019.0 980.0----wx
1994-07-22 12:00:00 28.3--- 8.6 16.829wxwxwxwx1wx--1018.8 979.9 0.0---wx
1994-07-22 13:00:00 28.8--- 7.6 16.626wxwxwxwx2wx--1018.4 979.6----wx
1994-07-22 14:00:00 29.1--- 7.6 16.726wxwxwxwx2wx--1018.1 979.4----wx
1994-07-22 15:00:00 28.6--- 7.0 16.326wxwxwxwx1wx--1017.9 979.1----wx
1994-07-22 16:00:00 28.6--- 7.5 16.527wxwxwxwx2wx--1017.6 978.8----wx
1994-07-22 17:00:00 26.6--- 10.1 16.835wxwxwxwx1wx--1017.8 978.8----wx
1994-07-22 18:00:00 25.0--- 10.3 16.340wxwxwx0wx--1018.1 978.9 0.0---wx
1994-07-22 19:00:00 23.2--- 10.7 15.845wxwxwx1wx--1018.7 979.2----wx
1994-07-22 20:00:00 19.4--- 12.0 15.062wxwxwx2wx--1020.0 979.9----wx
1994-07-22 21:00:00 16.7--- 11.4 13.671wxwxwx0wx--1020.9 980.4----wx
1994-07-22 22:00:00 14.2--- 11.0 12.481wxwxwx0wx--1021.4 980.6----wx
1994-07-22 23:00:00 13.2--- 9.6 11.279wxwxwx0wx--1021.5 980.5----wx

 

Źródłem pochodzenia danych jest Instytut Meteorologii i Gospodarki Wodnej – Państwowy Instytut Badawczy. Dane Instytutu Meteorologii i Gospodarki Wodnej – Państwowego Instytutu Badawczego zostały przetworzone.

Dane źródłowe można odnaleźć na stronie https://dane.imgw.pl